sensor_id;sensor_type;location;lat;lon;timestamp;P1;durP1;ratioP1;P2;durP2;ratioP2
44822;SDS011;51097;51.984;5.650;2022-12-10T00:00:34;57.25;;;32.05;;
44822;SDS011;51097;51.984;5.650;2022-12-10T00:03:00;55.15;;;30.73;;
44822;SDS011;51097;51.984;5.650;2022-12-10T00:05:26;61.63;;;31.77;;
44822;SDS011;51097;51.984;5.650;2022-12-10T00:07:52;68.15;;;31.48;;
44822;SDS011;51097;51.984;5.650;2022-12-10T00:10:17;62.78;;;31.17;;
44822;SDS011;51097;51.984;5.650;2022-12-10T00:12:43;61.15;;;31.50;;
44822;SDS011;51097;51.984;5.650;2022-12-10T00:15:09;58.58;;;30.42;;
44822;SDS011;51097;51.984;5.650;2022-12-10T00:17:35;63.00;;;32.05;;
44822;SDS011;51097;51.984;5.650;2022-12-10T00:20:01;70.82;;;31.75;;
44822;SDS011;51097;51.984;5.650;2022-12-10T00:22:27;60.03;;;28.73;;
44822;SDS011;51097;51.984;5.650;2022-12-10T00:24:52;63.97;;;30.45;;
44822;SDS011;51097;51.984;5.650;2022-12-10T00:27:18;63.30;;;30.90;;
44822;SDS011;51097;51.984;5.650;2022-12-10T00:29:43;61.88;;;30.10;;
44822;SDS011;51097;51.984;5.650;2022-12-10T00:32:09;59.15;;;28.85;;
44822;SDS011;51097;51.984;5.650;2022-12-10T00:34:34;60.08;;;30.13;;
44822;SDS011;51097;51.984;5.650;2022-12-10T00:37:00;58.42;;;29.88;;
44822;SDS011;51097;51.984;5.650;2022-12-10T00:39:26;60.08;;;30.48;;
44822;SDS011;51097;51.984;5.650;2022-12-10T00:41:52;67.65;;;32.10;;
44822;SDS011;51097;51.984;5.650;2022-12-10T00:44:17;59.72;;;29.05;;
44822;SDS011;51097;51.984;5.650;2022-12-10T00:46:43;59.70;;;31.27;;
44822;SDS011;51097;51.984;5.650;2022-12-10T00:49:09;58.78;;;29.40;;
44822;SDS011;51097;51.984;5.650;2022-12-10T00:51:35;66.18;;;30.15;;
44822;SDS011;51097;51.984;5.650;2022-12-10T00:54:00;60.17;;;29.63;;
44822;SDS011;51097;51.984;5.650;2022-12-10T00:56:27;65.00;;;29.83;;
44822;SDS011;51097;51.984;5.650;2022-12-10T00:58:54;65.75;;;31.52;;
44822;SDS011;51097;51.984;5.650;2022-12-10T01:03:53;66.85;;;30.60;;
44822;SDS011;51097;51.984;5.650;2022-12-10T01:06:22;60.30;;;31.50;;
44822;SDS011;51097;51.984;5.650;2022-12-10T01:08:48;59.67;;;32.13;;
44822;SDS011;51097;51.984;5.650;2022-12-10T01:11:15;60.53;;;29.27;;
44822;SDS011;51097;51.984;5.650;2022-12-10T01:13:43;65.93;;;31.08;;
44822;SDS011;51097;51.984;5.650;2022-12-10T01:16:11;67.60;;;31.55;;
44822;SDS011;51097;51.984;5.650;2022-12-10T01:18:38;64.05;;;31.65;;
44822;SDS011;51097;51.984;5.650;2022-12-10T01:21:04;69.00;;;33.53;;
44822;SDS011;51097;51.984;5.650;2022-12-10T01:23:36;75.05;;;32.83;;
44822;SDS011;51097;51.984;5.650;2022-12-10T01:26:04;64.80;;;31.42;;
44822;SDS011;51097;51.984;5.650;2022-12-10T01:28:35;61.08;;;30.77;;
44822;SDS011;51097;51.984;5.650;2022-12-10T01:31:02;63.22;;;30.85;;
44822;SDS011;51097;51.984;5.650;2022-12-10T01:33:30;71.13;;;31.45;;
44822;SDS011;51097;51.984;5.650;2022-12-10T01:35:57;62.08;;;32.35;;
44822;SDS011;51097;51.984;5.650;2022-12-10T01:38:31;57.45;;;29.27;;
44822;SDS011;51097;51.984;5.650;2022-12-10T01:40:57;67.93;;;32.80;;
44822;SDS011;51097;51.984;5.650;2022-12-10T01:43:23;66.70;;;30.48;;
44822;SDS011;51097;51.984;5.650;2022-12-10T01:45:49;62.00;;;30.88;;
44822;SDS011;51097;51.984;5.650;2022-12-10T01:48:14;68.28;;;33.08;;
44822;SDS011;51097;51.984;5.650;2022-12-10T01:50:40;60.60;;;31.02;;
44822;SDS011;51097;51.984;5.650;2022-12-10T01:53:06;66.55;;;31.83;;
44822;SDS011;51097;51.984;5.650;2022-12-10T01:55:43;63.78;;;32.03;;
44822;SDS011;51097;51.984;5.650;2022-12-10T01:58:09;60.75;;;30.80;;
44822;SDS011;51097;51.984;5.650;2022-12-10T02:00:37;64.95;;;30.52;;
44822;SDS011;51097;51.984;5.650;2022-12-10T02:03:20;62.50;;;30.50;;
44822;SDS011;51097;51.984;5.650;2022-12-10T02:05:56;62.55;;;32.13;;
44822;SDS011;51097;51.984;5.650;2022-12-10T02:08:33;57.45;;;29.10;;
44822;SDS011;51097;51.984;5.650;2022-12-10T02:13:49;62.58;;;30.70;;
44822;SDS011;51097;51.984;5.650;2022-12-10T02:16:30;61.45;;;30.17;;
44822;SDS011;51097;51.984;5.650;2022-12-10T02:19:13;65.10;;;30.63;;
44822;SDS011;51097;51.984;5.650;2022-12-10T02:21:59;76.32;;;31.65;;
44822;SDS011;51097;51.984;5.650;2022-12-10T02:24:28;61.10;;;31.70;;
44822;SDS011;51097;51.984;5.650;2022-12-10T02:27:02;68.90;;;34.50;;
44822;SDS011;51097;51.984;5.650;2022-12-10T02:29:35;64.53;;;30.92;;
44822;SDS011;51097;51.984;5.650;2022-12-10T02:32:05;69.95;;;33.20;;
44822;SDS011;51097;51.984;5.650;2022-12-10T02:34:35;65.07;;;31.35;;
44822;SDS011;51097;51.984;5.650;2022-12-10T02:37:12;74.32;;;33.47;;
44822;SDS011;51097;51.984;5.650;2022-12-10T02:39:43;62.33;;;31.40;;
44822;SDS011;51097;51.984;5.650;2022-12-10T02:42:13;64.55;;;32.17;;
44822;SDS011;51097;51.984;5.650;2022-12-10T02:44:41;68.00;;;33.85;;
44822;SDS011;51097;51.984;5.650;2022-12-10T02:47:08;69.55;;;31.48;;
44822;SDS011;51097;51.984;5.650;2022-12-10T02:49:35;74.22;;;33.15;;
44822;SDS011;51097;51.984;5.650;2022-12-10T02:52:08;71.25;;;32.95;;
44822;SDS011;51097;51.984;5.650;2022-12-10T02:54:36;67.43;;;32.15;;
44822;SDS011;51097;51.984;5.650;2022-12-10T02:57:10;80.50;;;35.72;;
44822;SDS011;51097;51.984;5.650;2022-12-10T03:08:49;67.70;;;33.63;;
44822;SDS011;51097;51.984;5.650;2022-12-10T03:11:21;67.40;;;32.83;;
44822;SDS011;51097;51.984;5.650;2022-12-10T03:16:22;65.30;;;30.42;;
44822;SDS011;51097;51.984;5.650;2022-12-10T03:18:51;70.07;;;33.60;;
44822;SDS011;51097;51.984;5.650;2022-12-10T03:21:20;64.70;;;32.50;;
44822;SDS011;51097;51.984;5.650;2022-12-10T03:23:47;71.28;;;33.38;;
44822;SDS011;51097;51.984;5.650;2022-12-10T03:26:15;68.90;;;31.27;;
44822;SDS011;51097;51.984;5.650;2022-12-10T03:28:45;68.88;;;30.85;;
44822;SDS011;51097;51.984;5.650;2022-12-10T03:31:15;69.75;;;32.75;;
44822;SDS011;51097;51.984;5.650;2022-12-10T03:33:43;85.50;;;37.33;;
44822;SDS011;51097;51.984;5.650;2022-12-10T03:36:10;75.70;;;36.20;;
44822;SDS011;51097;51.984;5.650;2022-12-10T03:38:37;84.05;;;40.95;;
44822;SDS011;51097;51.984;5.650;2022-12-10T03:41:03;81.90;;;37.70;;
44822;SDS011;51097;51.984;5.650;2022-12-10T03:43:29;85.70;;;38.75;;
44822;SDS011;51097;51.984;5.650;2022-12-10T03:45:54;85.55;;;37.70;;
44822;SDS011;51097;51.984;5.650;2022-12-10T03:48:20;99.30;;;44.35;;
44822;SDS011;51097;51.984;5.650;2022-12-10T03:50:45;86.63;;;39.72;;
44822;SDS011;51097;51.984;5.650;2022-12-10T03:53:11;89.40;;;39.03;;
44822;SDS011;51097;51.984;5.650;2022-12-10T03:55:37;91.90;;;42.03;;
44822;SDS011;51097;51.984;5.650;2022-12-10T03:58:03;98.13;;;42.35;;
44822;SDS011;51097;51.984;5.650;2022-12-10T04:00:28;95.47;;;41.05;;
44822;SDS011;51097;51.984;5.650;2022-12-10T04:02:54;102.88;;;45.00;;
44822;SDS011;51097;51.984;5.650;2022-12-10T04:05:19;104.55;;;43.67;;
44822;SDS011;51097;51.984;5.650;2022-12-10T04:07:45;99.72;;;42.10;;
44822;SDS011;51097;51.984;5.650;2022-12-10T04:10:11;114.38;;;43.97;;
44822;SDS011;51097;51.984;5.650;2022-12-10T04:12:37;103.88;;;45.15;;
44822;SDS011;51097;51.984;5.650;2022-12-10T04:15:03;91.97;;;42.72;;
44822;SDS011;51097;51.984;5.650;2022-12-10T04:17:47;114.72;;;46.55;;
44822;SDS011;51097;51.984;5.650;2022-12-10T04:20:13;116.05;;;42.58;;
44822;SDS011;51097;51.984;5.650;2022-12-10T04:22:57;123.05;;;45.30;;
44822;SDS011;51097;51.984;5.650;2022-12-10T04:25:41;107.20;;;41.95;;
44822;SDS011;51097;51.984;5.650;2022-12-10T04:28:26;107.05;;;44.10;;
44822;SDS011;51097;51.984;5.650;2022-12-10T04:30:51;113.07;;;42.58;;
44822;SDS011;51097;51.984;5.650;2022-12-10T04:33:17;109.03;;;39.25;;
44822;SDS011;51097;51.984;5.650;2022-12-10T04:35:42;106.93;;;42.00;;
44822;SDS011;51097;51.984;5.650;2022-12-10T04:38:08;118.78;;;42.83;;
44822;SDS011;51097;51.984;5.650;2022-12-10T04:40:34;125.50;;;43.63;;
44822;SDS011;51097;51.984;5.650;2022-12-10T04:42:59;119.35;;;42.45;;
44822;SDS011;51097;51.984;5.650;2022-12-10T04:45:25;102.45;;;40.78;;
44822;SDS011;51097;51.984;5.650;2022-12-10T04:47:50;122.75;;;39.00;;
44822;SDS011;51097;51.984;5.650;2022-12-10T04:50:16;98.75;;;33.80;;
44822;SDS011;51097;51.984;5.650;2022-12-10T04:52:41;110.45;;;37.15;;
44822;SDS011;51097;51.984;5.650;2022-12-10T04:55:07;111.32;;;37.83;;
44822;SDS011;51097;51.984;5.650;2022-12-10T04:57:33;108.05;;;40.47;;
44822;SDS011;51097;51.984;5.650;2022-12-10T04:59:58;115.95;;;38.83;;
44822;SDS011;51097;51.984;5.650;2022-12-10T05:02:24;122.45;;;39.85;;
44822;SDS011;51097;51.984;5.650;2022-12-10T05:04:49;146.23;;;40.05;;
44822;SDS011;51097;51.984;5.650;2022-12-10T05:07:15;109.35;;;39.90;;
44822;SDS011;51097;51.984;5.650;2022-12-10T05:09:41;103.03;;;35.40;;
44822;SDS011;51097;51.984;5.650;2022-12-10T05:12:06;121.32;;;40.53;;
44822;SDS011;51097;51.984;5.650;2022-12-10T05:14:32;108.72;;;38.40;;
44822;SDS011;51097;51.984;5.650;2022-12-10T05:16:57;130.60;;;41.03;;
44822;SDS011;51097;51.984;5.650;2022-12-10T05:19:23;100.20;;;38.35;;
44822;SDS011;51097;51.984;5.650;2022-12-10T05:21:51;123.80;;;41.65;;
44822;SDS011;51097;51.984;5.650;2022-12-10T05:24:35;124.18;;;41.10;;
44822;SDS011;51097;51.984;5.650;2022-12-10T05:27:02;126.35;;;43.65;;
44822;SDS011;51097;51.984;5.650;2022-12-10T05:29:28;149.73;;;42.20;;
44822;SDS011;51097;51.984;5.650;2022-12-10T05:31:54;115.47;;;39.67;;
44822;SDS011;51097;51.984;5.650;2022-12-10T05:34:20;109.55;;;40.03;;
44822;SDS011;51097;51.984;5.650;2022-12-10T05:36:45;130.55;;;40.38;;
44822;SDS011;51097;51.984;5.650;2022-12-10T05:39:11;121.80;;;44.30;;
44822;SDS011;51097;51.984;5.650;2022-12-10T05:41:37;118.13;;;39.75;;
44822;SDS011;51097;51.984;5.650;2022-12-10T05:44:04;127.97;;;41.92;;
44822;SDS011;51097;51.984;5.650;2022-12-10T05:46:32;161.80;;;48.70;;
44822;SDS011;51097;51.984;5.650;2022-12-10T05:48:59;130.50;;;42.65;;
44822;SDS011;51097;51.984;5.650;2022-12-10T05:51:27;143.15;;;42.35;;
44822;SDS011;51097;51.984;5.650;2022-12-10T05:53:54;149.75;;;42.33;;
44822;SDS011;51097;51.984;5.650;2022-12-10T05:56:22;126.70;;;43.25;;
44822;SDS011;51097;51.984;5.650;2022-12-10T05:58:49;143.48;;;43.30;;
44822;SDS011;51097;51.984;5.650;2022-12-10T06:01:16;123.28;;;41.05;;
44822;SDS011;51097;51.984;5.650;2022-12-10T06:03:44;119.32;;;42.28;;
44822;SDS011;51097;51.984;5.650;2022-12-10T06:06:10;122.55;;;43.47;;
44822;SDS011;51097;51.984;5.650;2022-12-10T06:08:36;151.95;;;45.58;;
44822;SDS011;51097;51.984;5.650;2022-12-10T06:11:03;134.43;;;46.88;;
44822;SDS011;51097;51.984;5.650;2022-12-10T06:13:33;121.30;;;43.83;;
44822;SDS011;51097;51.984;5.650;2022-12-10T06:15:59;157.27;;;44.67;;
44822;SDS011;51097;51.984;5.650;2022-12-10T06:18:28;164.15;;;45.40;;
44822;SDS011;51097;51.984;5.650;2022-12-10T06:20:54;113.63;;;42.78;;
44822;SDS011;51097;51.984;5.650;2022-12-10T06:23:19;149.27;;;42.60;;
44822;SDS011;51097;51.984;5.650;2022-12-10T06:25:45;143.65;;;41.83;;
44822;SDS011;51097;51.984;5.650;2022-12-10T06:28:11;122.60;;;39.40;;
44822;SDS011;51097;51.984;5.650;2022-12-10T06:30:36;123.95;;;38.45;;
44822;SDS011;51097;51.984;5.650;2022-12-10T06:33:02;124.20;;;37.25;;
44822;SDS011;51097;51.984;5.650;2022-12-10T06:35:27;142.95;;;40.80;;
44822;SDS011;51097;51.984;5.650;2022-12-10T06:37:53;126.65;;;38.75;;
44822;SDS011;51097;51.984;5.650;2022-12-10T06:40:18;114.57;;;40.60;;
44822;SDS011;51097;51.984;5.650;2022-12-10T06:42:44;120.32;;;40.20;;
44822;SDS011;51097;51.984;5.650;2022-12-10T06:45:10;100.63;;;41.40;;
44822;SDS011;51097;51.984;5.650;2022-12-10T06:47:36;126.43;;;39.30;;
44822;SDS011;51097;51.984;5.650;2022-12-10T06:50:01;139.88;;;41.30;;
44822;SDS011;51097;51.984;5.650;2022-12-10T06:52:27;113.78;;;39.47;;
44822;SDS011;51097;51.984;5.650;2022-12-10T06:54:52;132.45;;;40.33;;
44822;SDS011;51097;51.984;5.650;2022-12-10T06:57:20;117.63;;;40.05;;
44822;SDS011;51097;51.984;5.650;2022-12-10T06:59:46;124.18;;;37.10;;
44822;SDS011;51097;51.984;5.650;2022-12-10T07:02:11;113.18;;;41.50;;
44822;SDS011;51097;51.984;5.650;2022-12-10T07:04:37;101.28;;;40.05;;
44822;SDS011;51097;51.984;5.650;2022-12-10T07:07:03;99.82;;;37.03;;
44822;SDS011;51097;51.984;5.650;2022-12-10T07:09:29;112.85;;;41.80;;
44822;SDS011;51097;51.984;5.650;2022-12-10T07:11:56;117.13;;;39.85;;
44822;SDS011;51097;51.984;5.650;2022-12-10T07:14:22;120.82;;;40.40;;
44822;SDS011;51097;51.984;5.650;2022-12-10T07:16:48;135.35;;;40.33;;
44822;SDS011;51097;51.984;5.650;2022-12-10T07:19:13;110.90;;;39.08;;
44822;SDS011;51097;51.984;5.650;2022-12-10T07:21:40;128.30;;;38.58;;
44822;SDS011;51097;51.984;5.650;2022-12-10T07:24:09;131.85;;;35.85;;
44822;SDS011;51097;51.984;5.650;2022-12-10T07:26:37;121.38;;;38.97;;
44822;SDS011;51097;51.984;5.650;2022-12-10T07:29:05;94.80;;;36.38;;
44822;SDS011;51097;51.984;5.650;2022-12-10T07:31:32;121.22;;;35.92;;
44822;SDS011;51097;51.984;5.650;2022-12-10T07:34:00;102.07;;;35.80;;
44822;SDS011;51097;51.984;5.650;2022-12-10T07:36:25;115.30;;;36.72;;
44822;SDS011;51097;51.984;5.650;2022-12-10T07:38:52;104.85;;;34.35;;
44822;SDS011;51097;51.984;5.650;2022-12-10T07:41:18;115.97;;;34.55;;
44822;SDS011;51097;51.984;5.650;2022-12-10T07:43:44;103.85;;;35.13;;
44822;SDS011;51097;51.984;5.650;2022-12-10T07:46:15;125.93;;;33.72;;
44822;SDS011;51097;51.984;5.650;2022-12-10T07:48:47;109.03;;;33.58;;
44822;SDS011;51097;51.984;5.650;2022-12-10T07:51:13;103.68;;;35.67;;
44822;SDS011;51097;51.984;5.650;2022-12-10T07:53:40;114.07;;;36.22;;
44822;SDS011;51097;51.984;5.650;2022-12-10T07:56:06;98.28;;;33.72;;
44822;SDS011;51097;51.984;5.650;2022-12-10T07:58:33;112.43;;;36.17;;
44822;SDS011;51097;51.984;5.650;2022-12-10T08:00:58;100.30;;;34.55;;
44822;SDS011;51097;51.984;5.650;2022-12-10T08:03:24;133.13;;;37.50;;
44822;SDS011;51097;51.984;5.650;2022-12-10T08:06:03;122.80;;;37.50;;
44822;SDS011;51097;51.984;5.650;2022-12-10T08:11:00;97.50;;;32.25;;
44822;SDS011;51097;51.984;5.650;2022-12-10T08:13:27;98.78;;;32.97;;
44822;SDS011;51097;51.984;5.650;2022-12-10T08:15:53;105.50;;;34.42;;
44822;SDS011;51097;51.984;5.650;2022-12-10T08:18:19;119.47;;;33.60;;
44822;SDS011;51097;51.984;5.650;2022-12-10T08:20:45;121.03;;;33.75;;
44822;SDS011;51097;51.984;5.650;2022-12-10T08:23:11;99.40;;;32.38;;
44822;SDS011;51097;51.984;5.650;2022-12-10T08:25:36;100.28;;;35.58;;
44822;SDS011;51097;51.984;5.650;2022-12-10T08:28:02;85.15;;;30.70;;
44822;SDS011;51097;51.984;5.650;2022-12-10T08:30:28;96.80;;;32.35;;
44822;SDS011;51097;51.984;5.650;2022-12-10T08:32:54;90.90;;;32.50;;
44822;SDS011;51097;51.984;5.650;2022-12-10T08:35:20;87.70;;;29.02;;
44822;SDS011;51097;51.984;5.650;2022-12-10T08:37:46;105.18;;;31.83;;
44822;SDS011;51097;51.984;5.650;2022-12-10T08:40:11;109.07;;;34.63;;
44822;SDS011;51097;51.984;5.650;2022-12-10T08:42:37;90.53;;;31.05;;
44822;SDS011;51097;51.984;5.650;2022-12-10T08:45:03;117.93;;;31.90;;
44822;SDS011;51097;51.984;5.650;2022-12-10T08:47:29;78.18;;;30.42;;
44822;SDS011;51097;51.984;5.650;2022-12-10T08:49:55;82.90;;;31.75;;
44822;SDS011;51097;51.984;5.650;2022-12-10T08:52:21;92.93;;;29.73;;
44822;SDS011;51097;51.984;5.650;2022-12-10T08:54:46;81.65;;;29.83;;
44822;SDS011;51097;51.984;5.650;2022-12-10T08:57:12;84.38;;;31.65;;
44822;SDS011;51097;51.984;5.650;2022-12-10T08:59:37;91.85;;;30.83;;
44822;SDS011;51097;51.984;5.650;2022-12-10T09:02:03;94.53;;;30.85;;
44822;SDS011;51097;51.984;5.650;2022-12-10T09:04:28;89.93;;;31.90;;
44822;SDS011;51097;51.984;5.650;2022-12-10T09:06:54;76.30;;;31.25;;
44822;SDS011;51097;51.984;5.650;2022-12-10T09:09:19;92.50;;;30.00;;
44822;SDS011;51097;51.984;5.650;2022-12-10T09:11:45;80.03;;;28.08;;
44822;SDS011;51097;51.984;5.650;2022-12-10T09:14:11;100.13;;;30.83;;
44822;SDS011;51097;51.984;5.650;2022-12-10T09:16:38;92.68;;;28.15;;
44822;SDS011;51097;51.984;5.650;2022-12-10T09:19:04;89.93;;;31.77;;
44822;SDS011;51097;51.984;5.650;2022-12-10T09:21:31;80.57;;;29.00;;
44822;SDS011;51097;51.984;5.650;2022-12-10T09:23:57;91.63;;;29.88;;
44822;SDS011;51097;51.984;5.650;2022-12-10T09:26:22;86.03;;;29.27;;
44822;SDS011;51097;51.984;5.650;2022-12-10T09:28:48;85.07;;;30.73;;
44822;SDS011;51097;51.984;5.650;2022-12-10T09:31:15;88.18;;;31.10;;
44822;SDS011;51097;51.984;5.650;2022-12-10T09:33:42;91.88;;;32.13;;
44822;SDS011;51097;51.984;5.650;2022-12-10T09:36:09;94.28;;;33.55;;
44822;SDS011;51097;51.984;5.650;2022-12-10T09:38:37;98.07;;;32.85;;
44822;SDS011;51097;51.984;5.650;2022-12-10T09:41:05;88.80;;;31.25;;
44822;SDS011;51097;51.984;5.650;2022-12-10T09:43:52;100.28;;;31.17;;
44822;SDS011;51097;51.984;5.650;2022-12-10T09:52:10;97.65;;;34.63;;
44822;SDS011;51097;51.984;5.650;2022-12-10T09:57:25;92.32;;;31.88;;
44822;SDS011;51097;51.984;5.650;2022-12-10T09:59:55;95.70;;;32.83;;
44822;SDS011;51097;51.984;5.650;2022-12-10T10:07:36;96.75;;;29.30;;
44822;SDS011;51097;51.984;5.650;2022-12-10T10:10:07;103.30;;;33.53;;
44822;SDS011;51097;51.984;5.650;2022-12-10T10:12:51;114.40;;;34.47;;
44822;SDS011;51097;51.984;5.650;2022-12-10T10:15:20;106.45;;;35.83;;
44822;SDS011;51097;51.984;5.650;2022-12-10T10:17:52;94.18;;;33.65;;
44822;SDS011;51097;51.984;5.650;2022-12-10T10:20:18;92.38;;;32.67;;
44822;SDS011;51097;51.984;5.650;2022-12-10T10:22:44;93.40;;;30.77;;
44822;SDS011;51097;51.984;5.650;2022-12-10T10:25:17;83.80;;;29.77;;
44822;SDS011;51097;51.984;5.650;2022-12-10T10:27:43;96.53;;;30.67;;
44822;SDS011;51097;51.984;5.650;2022-12-10T10:30:16;91.50;;;31.42;;
44822;SDS011;51097;51.984;5.650;2022-12-10T10:32:45;86.45;;;30.40;;
44822;SDS011;51097;51.984;5.650;2022-12-10T10:35:21;88.82;;;31.38;;
44822;SDS011;51097;51.984;5.650;2022-12-10T10:38:06;96.07;;;31.58;;
44822;SDS011;51097;51.984;5.650;2022-12-10T10:40:42;79.20;;;27.77;;
44822;SDS011;51097;51.984;5.650;2022-12-10T10:43:18;87.70;;;31.20;;
44822;SDS011;51097;51.984;5.650;2022-12-10T10:45:51;86.80;;;30.65;;
44822;SDS011;51097;51.984;5.650;2022-12-10T10:48:25;91.53;;;31.75;;
44822;SDS011;51097;51.984;5.650;2022-12-10T10:53:27;91.50;;;31.13;;
44822;SDS011;51097;51.984;5.650;2022-12-10T10:55:56;91.25;;;30.83;;
44822;SDS011;51097;51.984;5.650;2022-12-10T10:58:33;97.15;;;31.58;;
44822;SDS011;51097;51.984;5.650;2022-12-10T11:01:01;87.47;;;30.80;;
44822;SDS011;51097;51.984;5.650;2022-12-10T11:05:57;72.47;;;27.65;;
44822;SDS011;51097;51.984;5.650;2022-12-10T11:08:25;95.72;;;31.85;;
44822;SDS011;51097;51.984;5.650;2022-12-10T11:11:04;72.55;;;28.17;;
44822;SDS011;51097;51.984;5.650;2022-12-10T11:13:35;85.25;;;27.45;;
44822;SDS011;51097;51.984;5.650;2022-12-10T11:18:36;76.13;;;28.63;;
44822;SDS011;51097;51.984;5.650;2022-12-10T11:21:26;85.40;;;27.42;;
44822;SDS011;51097;51.984;5.650;2022-12-10T11:23:54;96.57;;;29.52;;
44822;SDS011;51097;51.984;5.650;2022-12-10T11:37:45;98.05;;;29.50;;
44822;SDS011;51097;51.984;5.650;2022-12-10T11:40:38;80.78;;;29.45;;
44822;SDS011;51097;51.984;5.650;2022-12-10T11:43:12;79.43;;;28.48;;
44822;SDS011;51097;51.984;5.650;2022-12-10T11:45:53;69.38;;;26.30;;
44822;SDS011;51097;51.984;5.650;2022-12-10T11:51:25;73.43;;;25.02;;
44822;SDS011;51097;51.984;5.650;2022-12-10T11:56:52;61.58;;;24.52;;
44822;SDS011;51097;51.984;5.650;2022-12-10T12:08:48;66.45;;;24.25;;
44822;SDS011;51097;51.984;5.650;2022-12-10T12:14:37;63.03;;;24.38;;
44822;SDS011;51097;51.984;5.650;2022-12-10T12:17:19;60.97;;;25.08;;
44822;SDS011;51097;51.984;5.650;2022-12-10T12:19:47;63.53;;;24.77;;
44822;SDS011;51097;51.984;5.650;2022-12-10T12:22:23;70.22;;;28.83;;
44822;SDS011;51097;51.984;5.650;2022-12-10T12:24:52;73.30;;;29.83;;
44822;SDS011;51097;51.984;5.650;2022-12-10T12:27:28;68.40;;;28.33;;
44822;SDS011;51097;51.984;5.650;2022-12-10T12:30:01;70.53;;;27.10;;
44822;SDS011;51097;51.984;5.650;2022-12-10T12:32:35;90.57;;;28.42;;
44822;SDS011;51097;51.984;5.650;2022-12-10T12:35:19;77.10;;;28.40;;
44822;SDS011;51097;51.984;5.650;2022-12-10T12:40:56;60.20;;;24.80;;
44822;SDS011;51097;51.984;5.650;2022-12-10T12:43:40;64.70;;;25.80;;
44822;SDS011;51097;51.984;5.650;2022-12-10T12:46:39;71.53;;;26.80;;
44822;SDS011;51097;51.984;5.650;2022-12-10T12:49:18;66.13;;;24.90;;
44822;SDS011;51097;51.984;5.650;2022-12-10T12:51:53;92.03;;;24.90;;
44822;SDS011;51097;51.984;5.650;2022-12-10T12:54:27;55.38;;;23.95;;
44822;SDS011;51097;51.984;5.650;2022-12-10T12:56:55;66.38;;;22.73;;
44822;SDS011;51097;51.984;5.650;2022-12-10T13:00:20;68.63;;;24.15;;
44822;SDS011;51097;51.984;5.650;2022-12-10T13:05:21;56.20;;;24.85;;
44822;SDS011;51097;51.984;5.650;2022-12-10T13:10:52;62.53;;;27.17;;
44822;SDS011;51097;51.984;5.650;2022-12-10T13:13:38;65.15;;;24.77;;
44822;SDS011;51097;51.984;5.650;2022-12-10T13:24:21;61.60;;;25.83;;
44822;SDS011;51097;51.984;5.650;2022-12-10T13:30:37;58.00;;;24.55;;
44822;SDS011;51097;51.984;5.650;2022-12-10T13:37:53;63.65;;;25.20;;
44822;SDS011;51097;51.984;5.650;2022-12-10T13:41:04;61.63;;;23.98;;
44822;SDS011;51097;51.984;5.650;2022-12-10T13:46:51;65.90;;;27.75;;
44822;SDS011;51097;51.984;5.650;2022-12-10T13:49:18;68.03;;;23.83;;
44822;SDS011;51097;51.984;5.650;2022-12-10T14:00:19;56.30;;;24.75;;
44822;SDS011;51097;51.984;5.650;2022-12-10T14:08:26;51.67;;;24.52;;
44822;SDS011;51097;51.984;5.650;2022-12-10T14:10:56;50.20;;;20.83;;
44822;SDS011;51097;51.984;5.650;2022-12-10T14:13:26;50.25;;;19.58;;
44822;SDS011;51097;51.984;5.650;2022-12-10T14:16:01;60.78;;;23.80;;
44822;SDS011;51097;51.984;5.650;2022-12-10T14:18:27;55.83;;;21.55;;
44822;SDS011;51097;51.984;5.650;2022-12-10T14:20:55;60.00;;;22.95;;
44822;SDS011;51097;51.984;5.650;2022-12-10T14:26:05;52.90;;;22.00;;
44822;SDS011;51097;51.984;5.650;2022-12-10T14:28:43;61.25;;;25.40;;
44822;SDS011;51097;51.984;5.650;2022-12-10T14:31:19;55.47;;;22.70;;
44822;SDS011;51097;51.984;5.650;2022-12-10T14:33:49;52.05;;;20.35;;
44822;SDS011;51097;51.984;5.650;2022-12-10T14:39:15;62.03;;;20.95;;
44822;SDS011;51097;51.984;5.650;2022-12-10T14:41:42;60.15;;;21.00;;
44822;SDS011;51097;51.984;5.650;2022-12-10T14:44:11;64.80;;;20.42;;
44822;SDS011;51097;51.984;5.650;2022-12-10T14:49:07;61.35;;;21.33;;
44822;SDS011;51097;51.984;5.650;2022-12-10T14:51:38;54.08;;;22.35;;
44822;SDS011;51097;51.984;5.650;2022-12-10T14:54:04;64.55;;;23.73;;
44822;SDS011;51097;51.984;5.650;2022-12-10T14:56:53;65.07;;;22.77;;
44822;SDS011;51097;51.984;5.650;2022-12-10T14:59:25;46.33;;;21.45;;
44822;SDS011;51097;51.984;5.650;2022-12-10T15:01:56;50.33;;;20.05;;
44822;SDS011;51097;51.984;5.650;2022-12-10T15:04:38;53.90;;;21.17;;
44822;SDS011;51097;51.984;5.650;2022-12-10T15:07:07;49.50;;;20.90;;
44822;SDS011;51097;51.984;5.650;2022-12-10T15:09:42;69.70;;;25.45;;
44822;SDS011;51097;51.984;5.650;2022-12-10T15:15:19;63.20;;;23.88;;
44822;SDS011;51097;51.984;5.650;2022-12-10T15:17:55;60.10;;;23.23;;
44822;SDS011;51097;51.984;5.650;2022-12-10T15:20:39;64.22;;;23.65;;
44822;SDS011;51097;51.984;5.650;2022-12-10T15:26:27;55.53;;;24.00;;
44822;SDS011;51097;51.984;5.650;2022-12-10T15:28:35;61.88;;;23.13;;
44822;SDS011;51097;51.984;5.650;2022-12-10T15:33:59;69.25;;;24.17;;
44822;SDS011;51097;51.984;5.650;2022-12-10T15:36:35;56.67;;;21.80;;
44822;SDS011;51097;51.984;5.650;2022-12-10T15:39:04;60.65;;;23.33;;
44822;SDS011;51097;51.984;5.650;2022-12-10T15:41:45;61.65;;;23.73;;
44822;SDS011;51097;51.984;5.650;2022-12-10T15:44:32;61.47;;;25.70;;
44822;SDS011;51097;51.984;5.650;2022-12-10T15:47:12;62.90;;;23.02;;
44822;SDS011;51097;51.984;5.650;2022-12-10T15:49:40;63.03;;;22.58;;
44822;SDS011;51097;51.984;5.650;2022-12-10T15:52:06;67.55;;;23.60;;
44822;SDS011;51097;51.984;5.650;2022-12-10T15:54:37;64.50;;;23.75;;
44822;SDS011;51097;51.984;5.650;2022-12-10T15:57:14;65.57;;;24.70;;
44822;SDS011;51097;51.984;5.650;2022-12-10T15:59:48;59.75;;;24.17;;
44822;SDS011;51097;51.984;5.650;2022-12-10T16:05:12;67.80;;;24.83;;
44822;SDS011;51097;51.984;5.650;2022-12-10T16:07:58;58.60;;;24.15;;
44822;SDS011;51097;51.984;5.650;2022-12-10T16:10:27;73.28;;;24.27;;
44822;SDS011;51097;51.984;5.650;2022-12-10T16:13:03;69.00;;;27.95;;
44822;SDS011;51097;51.984;5.650;2022-12-10T16:15:35;73.55;;;28.73;;
44822;SDS011;51097;51.984;5.650;2022-12-10T16:18:10;79.32;;;28.83;;
44822;SDS011;51097;51.984;5.650;2022-12-10T16:20:36;68.65;;;27.65;;
44822;SDS011;51097;51.984;5.650;2022-12-10T16:23:02;66.22;;;28.88;;
44822;SDS011;51097;51.984;5.650;2022-12-10T16:25:31;72.32;;;28.10;;
44822;SDS011;51097;51.984;5.650;2022-12-10T16:27:58;91.70;;;29.40;;
44822;SDS011;51097;51.984;5.650;2022-12-10T16:30:34;81.32;;;28.98;;
44822;SDS011;51097;51.984;5.650;2022-12-10T16:33:02;89.90;;;29.45;;
44822;SDS011;51097;51.984;5.650;2022-12-10T16:35:29;70.30;;;27.73;;
44822;SDS011;51097;51.984;5.650;2022-12-10T16:37:54;76.82;;;29.08;;
44822;SDS011;51097;51.984;5.650;2022-12-10T16:40:23;77.18;;;29.45;;
44822;SDS011;51097;51.984;5.650;2022-12-10T16:42:55;84.60;;;30.17;;
44822;SDS011;51097;51.984;5.650;2022-12-10T16:45:26;80.55;;;28.10;;